Time;durP1;ratioP1;P1;durP2;ratioP2;P2;SDS_P1;SDS_P2;PMS_P1;PMS_P2;Temp;Humidity;BMP_temperature;BMP_pressure;BME280_temperature;BME280_humidity;BME280_pressure;Samples;Min_cycle;Max_cycle;Signal;HPM_P1;HPM_P2
2021/10/24 00:01:48;;;;;;;6.28;3.30;;;;;;;;;;6278708;22;20273;-62
2021/10/24 00:04:14;;;;;;;5.70;3.50;;;;;;;;;;6278484;22;20447;-61
2021/10/24 00:06:40;;;;;;;7.75;3.42;;;;;;;;;;6278596;22;20170;-62
2021/10/24 00:09:07;;;;;;;7.20;3.00;;;;;;;;;;6278369;22;20515;-62
2021/10/24 00:11:34;;;;;;;6.70;3.53;;;;;;;;;;6278653;22;20578;-62
2021/10/24 00:14:00;;;;;;;7.80;3.25;;;;;;;;;;6278348;22;20631;-62
2021/10/24 00:16:26;;;;;;;12.45;3.40;;;;;;;;;;6278630;22;20227;-62
2021/10/24 00:18:52;;;;;;;7.72;3.08;;;;;;;;;;6278582;22;20163;-62
2021/10/24 00:21:18;;;;;;;6.95;3.53;;;;;;;;;;6277997;22;20206;-62
2021/10/24 00:23:44;;;;;;;7.90;3.80;;;;;;;;;;6278440;22;20139;-62
2021/10/24 00:26:09;;;;;;;8.13;3.28;;;;;;;;;;6277789;22;20214;-62
2021/10/24 00:28:35;;;;;;;11.85;3.67;;;;;;;;;;6278341;22;20477;-62
2021/10/24 00:31:02;;;;;;;8.98;3.83;;;;;;;;;;6278270;22;20203;-62
2021/10/24 00:33:28;;;;;;;8.35;4.28;;;;;;;;;;6278235;22;20140;-62
2021/10/24 00:35:54;;;;;;;9.60;4.25;;;;;;;;;;6277749;22;20518;-62
2021/10/24 00:38:19;;;;;;;9.10;4.35;;;;;;;;;;6278208;22;20148;-62
2021/10/24 00:40:45;;;;;;;7.35;4.45;;;;;;;;;;6278101;22;20152;-62
2021/10/24 00:43:11;;;;;;;6.80;4.72;;;;;;;;;;6277912;22;20147;-61
2021/10/24 00:45:37;;;;;;;7.50;4.07;;;;;;;;;;6277609;22;20358;-62
2021/10/24 00:48:03;;;;;;;9.23;4.45;;;;;;;;;;6277724;22;20462;-62
2021/10/24 00:50:29;;;;;;;5.75;4.10;;;;;;;;;;6277889;22;20231;-62
2021/10/24 00:52:56;;;;;;;10.13;4.57;;;;;;;;;;6278049;22;20143;-61
2021/10/24 00:55:23;;;;;;;10.13;4.97;;;;;;;;;;6277336;22;20140;-62
2021/10/24 00:57:49;;;;;;;11.32;4.57;;;;;;;;;;6278005;22;20167;-62
2021/10/24 01:00:15;;;;;;;8.90;4.53;;;;;;;;;;6277441;22;20143;-62
2021/10/24 01:02:41;;;;;;;9.88;4.68;;;;;;;;;;6277593;22;20151;-62
2021/10/24 01:05:07;;;;;;;6.40;4.47;;;;;;;;;;6277559;22;20151;-62
2021/10/24 01:07:34;;;;;;;7.78;4.22;;;;;;;;;;6277282;22;20475;-62
2021/10/24 01:10:00;;;;;;;8.88;4.75;;;;;;;;;;6277300;22;20586;-61
2021/10/24 01:12:26;;;;;;;7.43;4.88;;;;;;;;;;6277295;22;20171;-62
2021/10/24 01:14:52;;;;;;;8.27;4.97;;;;;;;;;;6277294;22;20193;-62
2021/10/24 01:17:18;;;;;;;8.63;5.00;;;;;;;;;;6277139;22;20539;-62
2021/10/24 01:19:44;;;;;;;8.35;4.97;;;;;;;;;;6277236;22;20261;-62
2021/10/24 01:22:10;;;;;;;9.70;5.13;;;;;;;;;;6277293;22;20147;-62
2021/10/24 01:24:36;;;;;;;8.75;4.82;;;;;;;;;;6277637;22;20144;-62
2021/10/24 01:27:03;;;;;;;8.43;4.70;;;;;;;;;;6276933;22;20175;-62
2021/10/24 01:29:29;;;;;;;13.57;5.05;;;;;;;;;;6277111;22;20208;-62
2021/10/24 01:31:55;;;;;;;8.50;5.10;;;;;;;;;;6276976;22;20144;-61
2021/10/24 01:34:21;;;;;;;9.95;4.90;;;;;;;;;;6277088;22;20147;-62
2021/10/24 01:36:47;;;;;;;9.27;4.68;;;;;;;;;;6277341;22;20148;-62
2021/10/24 01:39:14;;;;;;;9.27;5.13;;;;;;;;;;6277389;22;20578;-62
2021/10/24 01:41:40;;;;;;;7.78;4.80;;;;;;;;;;6276989;22;20225;-62
2021/10/24 01:44:06;;;;;;;10.27;4.85;;;;;;;;;;6276984;22;20575;-62
2021/10/24 01:46:32;;;;;;;6.43;4.47;;;;;;;;;;6277091;22;20225;-62
2021/10/24 01:48:58;;;;;;;10.80;5.13;;;;;;;;;;6276928;22;20140;-62
2021/10/24 01:51:24;;;;;;;8.13;5.65;;;;;;;;;;6276899;22;20351;-62
2021/10/24 01:53:50;;;;;;;7.35;5.18;;;;;;;;;;6276969;22;20135;-62
2021/10/24 01:56:16;;;;;;;11.32;4.85;;;;;;;;;;6277163;22;20143;-61
2021/10/24 01:58:43;;;;;;;6.57;4.57;;;;;;;;;;6277144;22;20148;-62
2021/10/24 02:01:09;;;;;;;10.75;4.88;;;;;;;;;;6276803;22;20538;-62
2021/10/24 02:03:36;;;;;;;8.60;4.53;;;;;;;;;;6276748;22;20140;-62
2021/10/24 02:06:02;;;;;;;9.63;4.80;;;;;;;;;;6276938;22;20221;-62
2021/10/24 02:08:28;;;;;;;9.20;5.40;;;;;;;;;;6276365;22;20140;-62
2021/10/24 02:10:54;;;;;;;9.45;4.75;;;;;;;;;;6276650;22;20140;-62
2021/10/24 02:13:20;;;;;;;6.75;4.43;;;;;;;;;;6276613;22;20201;-61
2021/10/24 02:15:46;;;;;;;7.90;5.00;;;;;;;;;;6276671;22;20143;-62
2021/10/24 02:18:13;;;;;;;8.30;4.40;;;;;;;;;;6276587;22;20536;-63
2021/10/24 02:20:39;;;;;;;7.13;4.40;;;;;;;;;;6277029;22;20156;-62
2021/10/24 02:23:06;;;;;;;9.38;4.35;;;;;;;;;;6276872;22;20448;-62
2021/10/24 02:25:33;;;;;;;9.30;4.22;;;;;;;;;;6276355;22;20171;-62
2021/10/24 02:27:59;;;;;;;7.63;4.22;;;;;;;;;;6276881;22;20150;-61
2021/10/24 02:30:25;;;;;;;11.57;4.32;;;;;;;;;;6277279;22;20151;-62
2021/10/24 02:32:51;;;;;;;8.68;4.55;;;;;;;;;;6276556;22;20163;-62
2021/10/24 02:35:20;;;;;;;8.82;4.05;;;;;;;;;;6276542;22;20140;-62
2021/10/24 02:37:46;;;;;;;13.15;4.63;;;;;;;;;;6276885;22;20143;-61
2021/10/24 02:40:12;;;;;;;11.20;5.05;;;;;;;;;;6276623;22;20143;-62
2021/10/24 02:42:38;;;;;;;8.63;5.05;;;;;;;;;;6276834;22;20201;-61
2021/10/24 02:45:04;;;;;;;8.80;5.10;;;;;;;;;;6276777;22;20147;-62
2021/10/24 02:47:30;;;;;;;9.23;5.35;;;;;;;;;;6276470;22;20150;-62
2021/10/24 02:49:56;;;;;;;13.77;4.95;;;;;;;;;;6276651;22;20198;-62
2021/10/24 02:52:22;;;;;;;11.73;5.15;;;;;;;;;;6276647;22;20135;-62
2021/10/24 02:54:48;;;;;;;10.88;4.90;;;;;;;;;;6276653;22;20227;-62
2021/10/24 02:57:14;;;;;;;7.70;5.18;;;;;;;;;;6276537;22;20154;-62
2021/10/24 02:59:40;;;;;;;7.50;5.05;;;;;;;;;;6276642;22;20147;-62
2021/10/24 03:02:06;;;;;;;13.63;5.63;;;;;;;;;;6276776;22;20277;-62
2021/10/24 03:04:32;;;;;;;8.18;4.80;;;;;;;;;;6276856;22;20272;-62
2021/10/24 03:06:58;;;;;;;6.70;4.88;;;;;;;;;;6276994;22;20164;-62
2021/10/24 03:09:24;;;;;;;11.68;5.53;;;;;;;;;;6277065;22;20389;-62
2021/10/24 03:11:50;;;;;;;8.18;5.20;;;;;;;;;;6276925;22;20505;-61
2021/10/24 03:14:16;;;;;;;9.85;5.05;;;;;;;;;;6277296;22;20200;-62
2021/10/24 03:16:43;;;;;;;10.93;5.45;;;;;;;;;;6277095;22;20443;-62
2021/10/24 03:19:09;;;;;;;7.78;5.00;;;;;;;;;;6277196;22;20147;-62
2021/10/24 03:21:35;;;;;;;9.48;5.80;;;;;;;;;;6276935;22;20143;-62
2021/10/24 03:24:01;;;;;;;10.68;6.18;;;;;;;;;;6277198;22;20547;-62
2021/10/24 03:26:28;;;;;;;10.43;5.68;;;;;;;;;;6276776;22;20393;-62
2021/10/24 03:28:54;;;;;;;8.27;5.65;;;;;;;;;;6277190;22;20140;-62
2021/10/24 03:31:21;;;;;;;11.57;5.60;;;;;;;;;;6277233;22;20178;-62
2021/10/24 03:33:47;;;;;;;8.73;5.85;;;;;;;;;;6276785;22;20139;-62
2021/10/24 03:36:13;;;;;;;12.77;5.25;;;;;;;;;;6277259;22;20205;-62
2021/10/24 03:38:39;;;;;;;9.15;5.55;;;;;;;;;;6277389;22;20144;-62
2021/10/24 03:41:05;;;;;;;13.13;5.13;;;;;;;;;;6276883;22;20281;-62
2021/10/24 03:43:31;;;;;;;9.20;4.88;;;;;;;;;;6276847;22;20143;-62
2021/10/24 03:45:57;;;;;;;9.57;5.47;;;;;;;;;;6276686;22;20672;-62
2021/10/24 03:48:23;;;;;;;11.23;4.95;;;;;;;;;;6276597;22;20136;-62
2021/10/24 03:50:49;;;;;;;9.00;4.45;;;;;;;;;;6276728;22;20155;-62
2021/10/24 03:53:15;;;;;;;7.35;4.57;;;;;;;;;;6277028;22;20449;-62
2021/10/24 03:55:41;;;;;;;10.40;4.43;;;;;;;;;;6277025;22;20539;-61
2021/10/24 03:58:07;;;;;;;6.45;4.13;;;;;;;;;;6276444;22;20577;-62
2021/10/24 04:00:33;;;;;;;10.82;4.13;;;;;;;;;;6276557;22;20140;-60
2021/10/24 04:03:00;;;;;;;7.85;3.90;;;;;;;;;;6276358;22;20473;-60
2021/10/24 04:05:26;;;;;;;7.32;4.18;;;;;;;;;;6276784;22;20171;-60
2021/10/24 04:07:54;;;;;;;8.32;4.05;;;;;;;;;;6276610;22;20136;-60
2021/10/24 04:10:20;;;;;;;8.55;4.57;;;;;;;;;;6276310;22;20136;-60
2021/10/24 04:12:46;;;;;;;8.80;4.45;;;;;;;;;;6276288;22;20143;-60
2021/10/24 04:15:13;;;;;;;9.07;4.25;;;;;;;;;;6276373;22;20595;-60
2021/10/24 04:17:39;;;;;;;8.82;4.47;;;;;;;;;;6276479;22;20209;-60
2021/10/24 04:20:09;;;;;;;9.10;4.35;;;;;;;;;;6276322;22;20140;-60
2021/10/24 04:22:38;;;;;;;9.60;4.13;;;;;;;;;;6276536;22;20136;-60
2021/10/24 04:25:05;;;;;;;9.80;4.80;;;;;;;;;;6275966;22;20490;-60
2021/10/24 04:27:32;;;;;;;9.88;4.43;;;;;;;;;;6276456;22;20584;-60
2021/10/24 04:29:58;;;;;;;8.32;4.43;;;;;;;;;;6276729;22;20286;-60
2021/10/24 04:32:24;;;;;;;12.38;4.47;;;;;;;;;;6278232;22;20485;-60
2021/10/24 04:34:50;;;;;;;9.93;4.43;;;;;;;;;;6278248;22;20235;-60
2021/10/24 04:37:16;;;;;;;7.82;4.47;;;;;;;;;;6277959;22;20166;-60
2021/10/24 04:39:42;;;;;;;8.18;4.10;;;;;;;;;;6277815;22;20139;-60
2021/10/24 04:42:09;;;;;;;6.30;4.25;;;;;;;;;;6278175;22;20158;-60
2021/10/24 04:44:35;;;;;;;8.15;4.40;;;;;;;;;;6278301;22;20147;-60
2021/10/24 04:47:00;;;;;;;7.97;4.07;;;;;;;;;;6278104;22;20167;-59
2021/10/24 04:49:26;;;;;;;9.00;4.13;;;;;;;;;;6277931;22;20143;-59
2021/10/24 04:51:52;;;;;;;12.77;4.60;;;;;;;;;;6278240;22;20151;-59
2021/10/24 04:54:20;;;;;;;10.15;3.97;;;;;;;;;;6278534;22;20143;-59
2021/10/24 04:56:45;;;;;;;11.05;4.57;;;;;;;;;;6277833;22;20140;-59
2021/10/24 04:59:11;;;;;;;11.73;4.97;;;;;;;;;;6277575;22;20163;-59
2021/10/24 05:01:37;;;;;;;10.43;4.57;;;;;;;;;;6278076;22;20205;-59
2021/10/24 05:04:03;;;;;;;8.52;4.30;;;;;;;;;;6277931;22;20595;-59
2021/10/24 05:06:29;;;;;;;11.18;4.72;;;;;;;;;;6277574;22;20178;-59
2021/10/24 05:08:55;;;;;;;9.25;4.35;;;;;;;;;;6277972;22;20144;-59
2021/10/24 05:11:21;;;;;;;10.98;3.88;;;;;;;;;;6277865;22;20178;-59
2021/10/24 05:13:47;;;;;;;9.20;4.40;;;;;;;;;;6250685;22;20638;-60
2021/10/24 05:16:13;;;;;;;7.25;4.53;;;;;;;;;;6277516;22;20175;-60
2021/10/24 05:18:39;;;;;;;7.90;4.13;;;;;;;;;;6277326;22;20143;-60
2021/10/24 05:21:05;;;;;;;8.70;4.43;;;;;;;;;;6277401;22;20150;-60
2021/10/24 05:23:31;;;;;;;9.13;4.20;;;;;;;;;;6277394;22;20143;-60
2021/10/24 05:25:58;;;;;;;10.90;4.13;;;;;;;;;;6277419;22;20171;-60
2021/10/24 05:28:24;;;;;;;6.75;3.88;;;;;;;;;;6278041;22;20166;-59
2021/10/24 05:30:50;;;;;;;7.78;4.13;;;;;;;;;;6277305;22;20178;-57
2021/10/24 05:33:16;;;;;;;9.48;4.28;;;;;;;;;;6277680;22;20140;-59
2021/10/24 05:35:42;;;;;;;10.73;4.10;;;;;;;;;;6277775;22;20156;-59
2021/10/24 05:38:08;;;;;;;9.80;4.20;;;;;;;;;;6277646;22;20226;-60
2021/10/24 05:40:34;;;;;;;9.73;4.05;;;;;;;;;;6277393;22;20154;-60
2021/10/24 05:43:00;;;;;;;8.30;4.10;;;;;;;;;;6276842;22;20154;-57
2021/10/24 05:45:26;;;;;;;6.80;4.10;;;;;;;;;;6277927;22;20164;-60
2021/10/24 05:47:52;;;;;;;10.23;3.80;;;;;;;;;;6278890;22;20143;-60
2021/10/24 05:50:18;;;;;;;7.22;4.40;;;;;;;;;;6279314;22;20140;-60
2021/10/24 05:52:44;;;;;;;13.55;4.47;;;;;;;;;;6279158;22;20563;-60
2021/10/24 05:55:10;;;;;;;11.30;5.30;;;;;;;;;;6279287;22;20146;-59
2021/10/24 05:57:36;;;;;;;11.15;4.28;;;;;;;;;;6279948;22;20552;-60
2021/10/24 06:00:02;;;;;;;10.85;4.55;;;;;;;;;;6279358;22;20163;-59
2021/10/24 06:02:28;;;;;;;12.15;4.45;;;;;;;;;;6279945;22;20536;-60
2021/10/24 06:04:57;;;;;;;10.65;4.32;;;;;;;;;;6279847;22;20140;-59
2021/10/24 06:07:23;;;;;;;10.80;4.15;;;;;;;;;;6280530;22;20167;-59
2021/10/24 06:15:00;;;;;;;9.95;4.40;;;;;;;;;;6291143;22;20146;-59
2021/10/24 06:17:26;;;;;;;14.68;4.60;;;;;;;;;;6280321;22;20139;-60
2021/10/24 06:19:52;;;;;;;9.90;5.18;;;;;;;;;;6276856;22;20139;-59
2021/10/24 06:22:18;;;;;;;8.70;4.22;;;;;;;;;;6276841;22;20167;-60
2021/10/24 06:24:44;;;;;;;11.15;4.35;;;;;;;;;;6276978;22;20171;-60
2021/10/24 06:27:09;;;;;;;10.60;4.70;;;;;;;;;;6276921;22;20183;-60
2021/10/24 06:29:35;;;;;;;7.88;4.45;;;;;;;;;;6276941;22;20140;-60
2021/10/24 06:32:01;;;;;;;8.95;4.32;;;;;;;;;;6276726;22;20147;-60
2021/10/24 06:34:27;;;;;;;8.93;4.40;;;;;;;;;;6276725;22;20164;-60
2021/10/24 06:36:53;;;;;;;12.38;4.55;;;;;;;;;;6276732;22;20625;-60
2021/10/24 06:39:19;;;;;;;17.38;4.30;;;;;;;;;;6276654;22;20148;-59
2021/10/24 06:41:45;;;;;;;11.73;4.43;;;;;;;;;;6276717;22;20539;-60
2021/10/24 06:44:11;;;;;;;11.07;4.00;;;;;;;;;;6276839;22;20173;-60
2021/10/24 06:46:37;;;;;;;9.73;4.05;;;;;;;;;;6277564;22;20250;-60
2021/10/24 06:49:03;;;;;;;10.10;3.80;;;;;;;;;;6277629;22;20214;-59
2021/10/24 06:51:29;;;;;;;8.60;3.80;;;;;;;;;;6276319;22;20222;-60
2021/10/24 06:53:55;;;;;;;12.90;4.50;;;;;;;;;;6276809;22;20218;-60
2021/10/24 06:56:20;;;;;;;10.90;3.72;;;;;;;;;;6276429;22;20167;-60
2021/10/24 06:58:47;;;;;;;11.52;4.43;;;;;;;;;;6276525;22;20140;-60
2021/10/24 07:01:13;;;;;;;9.85;4.25;;;;;;;;;;6276935;22;20148;-60
2021/10/24 07:03:38;;;;;;;10.00;3.85;;;;;;;;;;6276622;22;20538;-60
2021/10/24 07:06:05;;;;;;;11.98;3.90;;;;;;;;;;6276328;22;20163;-60
2021/10/24 07:08:31;;;;;;;11.73;3.78;;;;;;;;;;6276712;22;20207;-59
2021/10/24 07:10:57;;;;;;;11.93;3.92;;;;;;;;;;6276742;22;20181;-59
2021/10/24 07:13:23;;;;;;;10.88;3.88;;;;;;;;;;6276484;22;20555;-60
2021/10/24 07:15:49;;;;;;;10.43;3.83;;;;;;;;;;6276389;22;20186;-58
2021/10/24 07:18:15;;;;;;;9.95;3.83;;;;;;;;;;6276587;22;20218;-60
2021/10/24 07:20:41;;;;;;;9.40;4.22;;;;;;;;;;6276480;22;20140;-60
2021/10/24 07:23:06;;;;;;;9.52;4.05;;;;;;;;;;6276887;22;20201;-60
2021/10/24 07:25:32;;;;;;;8.68;3.42;;;;;;;;;;6276390;22;20171;-60
2021/10/24 07:27:58;;;;;;;11.38;4.35;;;;;;;;;;6276730;22;20124;-60
2021/10/24 07:30:24;;;;;;;9.15;4.20;;;;;;;;;;6276933;22;20147;-60
2021/10/24 07:32:51;;;;;;;9.80;3.60;;;;;;;;;;6277356;22;20512;-60
2021/10/24 07:35:16;;;;;;;8.00;3.95;;;;;;;;;;6277214;22;20135;-60
2021/10/24 07:37:43;;;;;;;9.52;3.90;;;;;;;;;;6277232;22;20151;-60
2021/10/24 07:40:09;;;;;;;13.10;4.40;;;;;;;;;;6277369;22;20146;-60
2021/10/24 07:42:35;;;;;;;11.15;4.20;;;;;;;;;;6277316;22;20144;-59
2021/10/24 07:45:02;;;;;;;9.48;3.70;;;;;;;;;;6277480;22;20614;-60
2021/10/24 07:47:30;;;;;;;9.15;4.53;;;;;;;;;;6276819;22;20562;-60
2021/10/24 07:49:57;;;;;;;9.52;4.10;;;;;;;;;;6277107;22;20563;-60
2021/10/24 07:52:23;;;;;;;7.03;3.70;;;;;;;;;;6276813;22;20613;-60
2021/10/24 07:54:49;;;;;;;13.25;4.35;;;;;;;;;;6276698;22;20144;-60
2021/10/24 07:57:15;;;;;;;10.05;4.00;;;;;;;;;;6276754;22;20201;-60
2021/10/24 07:59:41;;;;;;;6.22;3.53;;;;;;;;;;6276742;22;20208;-60
2021/10/24 08:02:08;;;;;;;6.78;3.15;;;;;;;;;;6276792;22;20159;-60
2021/10/24 08:04:35;;;;;;;5.40;3.17;;;;;;;;;;6277204;22;20144;-60
2021/10/24 08:07:03;;;;;;;7.30;3.22;;;;;;;;;;6281479;22;20207;-60
2021/10/24 08:09:29;;;;;;;13.25;3.50;;;;;;;;;;6282842;22;20435;-60
2021/10/24 08:11:55;;;;;;;7.15;3.25;;;;;;;;;;6278677;22;20420;-60
2021/10/24 08:14:21;;;;;;;5.10;2.70;;;;;;;;;;6278686;22;20143;-60
2021/10/24 08:16:47;;;;;;;4.97;2.72;;;;;;;;;;6279782;22;20140;-60
2021/10/24 08:19:14;;;;;;;7.28;3.47;;;;;;;;;;6278596;22;20247;-61
2021/10/24 08:21:40;;;;;;;4.72;2.70;;;;;;;;;;6278383;22;20144;-60
2021/10/24 08:24:06;;;;;;;7.10;2.88;;;;;;;;;;6278245;22;20144;-61
2021/10/24 08:26:32;;;;;;;6.53;2.80;;;;;;;;;;6278032;22;20179;-61
2021/10/24 08:28:58;;;;;;;9.00;3.00;;;;;;;;;;6278729;22;20136;-61
2021/10/24 08:31:26;;;;;;;5.50;2.70;;;;;;;;;;6278292;22;20139;-61
2021/10/24 08:33:53;;;;;;;6.28;2.92;;;;;;;;;;6278727;22;20154;-61
2021/10/24 08:36:20;;;;;;;6.03;2.30;;;;;;;;;;6278730;22;20159;-61
2021/10/24 08:38:46;;;;;;;6.53;2.63;;;;;;;;;;6278214;22;20176;-61
2021/10/24 08:41:13;;;;;;;4.68;2.38;;;;;;;;;;6277939;22;20222;-61
2021/10/24 08:43:40;;;;;;;5.15;2.38;;;;;;;;;;6278440;22;20501;-61
2021/10/24 08:46:06;;;;;;;4.68;2.42;;;;;;;;;;6278386;22;20475;-61
2021/10/24 08:48:34;;;;;;;7.80;2.63;;;;;;;;;;6278080;22;20446;-61
2021/10/24 08:51:00;;;;;;;5.07;2.13;;;;;;;;;;6278211;22;20173;-61
2021/10/24 08:53:27;;;;;;;5.95;2.40;;;;;;;;;;6278298;22;20139;-60
2021/10/24 08:55:53;;;;;;;8.65;2.55;;;;;;;;;;6278054;22;20144;-64
2021/10/24 08:58:20;;;;;;;4.88;2.20;;;;;;;;;;6278031;22;20158;-60
2021/10/24 09:00:47;;;;;;;5.15;2.22;;;;;;;;;;6278054;22;20154;-60
2021/10/24 09:03:13;;;;;;;5.88;2.58;;;;;;;;;;6277750;22;20283;-60
2021/10/24 09:05:57;;;;;;;6.55;2.30;;;;;;;;;;6277675;22;20272;-60
2021/10/24 09:08:24;;;;;;;6.32;2.65;;;;;;;;;;6277914;22;20139;-60
2021/10/24 09:10:54;;;;;;;7.22;2.20;;;;;;;;;;6277859;22;20135;-60
2021/10/24 09:13:22;;;;;;;6.68;2.33;;;;;;;;;;6277968;22;20280;-61
2021/10/24 09:15:56;;;;;;;7.05;2.50;;;;;;;;;;6277785;22;20150;-60
2021/10/24 09:18:23;;;;;;;6.18;2.22;;;;;;;;;;6277696;22;20457;-61
2021/10/24 09:20:49;;;;;;;5.45;2.47;;;;;;;;;;6277575;22;20570;-61
2021/10/24 09:23:15;;;;;;;5.32;2.35;;;;;;;;;;6277963;22;20651;-60
2021/10/24 09:25:49;;;;;;;6.57;2.35;;;;;;;;;;6277383;22;20234;-61
2021/10/24 09:28:17;;;;;;;4.80;2.20;;;;;;;;;;6277989;22;20131;-61
2021/10/24 09:30:43;;;;;;;4.93;2.15;;;;;;;;;;6277712;22;20140;-61
2021/10/24 09:33:10;;;;;;;7.90;2.13;;;;;;;;;;6277461;22;20151;-61
2021/10/24 09:35:38;;;;;;;5.85;2.03;;;;;;;;;;6277492;22;20162;-61
2021/10/24 09:38:09;;;;;;;5.18;1.95;;;;;;;;;;6277543;22;20155;-61
2021/10/24 09:40:36;;;;;;;5.45;2.45;;;;;;;;;;6277835;22;20441;-60
2021/10/24 09:43:12;;;;;;;4.65;2.40;;;;;;;;;;6277632;22;20435;-61
2021/10/24 09:45:39;;;;;;;4.30;2.20;;;;;;;;;;6277540;22;20175;-61
2021/10/24 09:48:06;;;;;;;7.60;2.60;;;;;;;;;;6277249;22;20144;-60
2021/10/24 09:50:33;;;;;;;5.95;2.40;;;;;;;;;;6277531;22;20140;-60
2021/10/24 09:53:18;;;;;;;4.72;2.10;;;;;;;;;;6277466;22;20143;-61
2021/10/24 09:55:45;;;;;;;6.88;1.80;;;;;;;;;;6277340;22;20144;-61
2021/10/24 09:58:12;;;;;;;4.25;1.83;;;;;;;;;;6277122;22;20144;-61
2021/10/24 10:00:39;;;;;;;5.20;1.90;;;;;;;;;;6277583;22;20234;-61
2021/10/24 10:03:06;;;;;;;4.43;1.63;;;;;;;;;;6250386;22;20519;-60
2021/10/24 10:05:32;;;;;;;4.60;1.60;;;;;;;;;;6277899;22;20237;-60
2021/10/24 10:07:59;;;;;;;4.82;1.70;;;;;;;;;;6277200;22;20539;-60
2021/10/24 10:10:26;;;;;;;3.35;1.65;;;;;;;;;;6276986;22;20147;-61
2021/10/24 10:12:53;;;;;;;5.20;1.77;;;;;;;;;;6276882;22;20141;-60
2021/10/24 10:15:21;;;;;;;4.00;1.70;;;;;;;;;;6276746;22;20489;-60
2021/10/24 10:17:48;;;;;;;5.55;1.77;;;;;;;;;;6277242;22;20443;-60
2021/10/24 10:20:20;;;;;;;6.25;2.45;;;;;;;;;;6276820;22;20236;-60
2021/10/24 10:22:59;;;;;;;4.00;1.77;;;;;;;;;;6276797;22;20243;-59
2021/10/24 10:25:29;;;;;;;3.85;1.48;;;;;;;;;;6277067;22;20162;-61
2021/10/24 10:27:55;;;;;;;3.45;1.65;;;;;;;;;;6276333;22;20460;-60
2021/10/24 10:30:31;;;;;;;4.10;1.40;;;;;;;;;;6276660;22;20462;-60
2021/10/24 10:32:57;;;;;;;3.85;1.35;;;;;;;;;;6277010;22;20220;-60
2021/10/24 10:35:24;;;;;;;3.90;1.42;;;;;;;;;;6277171;22;20543;-60
2021/10/24 10:37:55;;;;;;;3.80;1.55;;;;;;;;;;6276522;22;20151;-60
2021/10/24 10:40:24;;;;;;;3.50;1.52;;;;;;;;;;6277025;22;20151;-60
2021/10/24 10:42:51;;;;;;;3.90;1.15;;;;;;;;;;6276851;22;20223;-61
2021/10/24 10:45:17;;;;;;;4.78;1.55;;;;;;;;;;6276576;22;20163;-60
2021/10/24 10:47:50;;;;;;;5.57;1.42;;;;;;;;;;6276640;22;20162;-59
2021/10/24 10:50:28;;;;;;;2.05;1.48;;;;;;;;;;6276986;22;20148;-60
2021/10/24 10:52:55;;;;;;;3.30;1.38;;;;;;;;;;6276801;22;20222;-61
2021/10/24 10:55:22;;;;;;;2.83;1.13;;;;;;;;;;6276922;22;20150;-61
2021/10/24 10:57:48;;;;;;;2.28;1.38;;;;;;;;;;6277651;22;20135;-62
2021/10/24 11:00:32;;;;;;;2.15;1.30;;;;;;;;;;6277632;22;20170;-62
2021/10/24 11:02:58;;;;;;;5.35;1.35;;;;;;;;;;6276334;22;20216;-60
2021/10/24 11:05:34;;;;;;;3.90;1.20;;;;;;;;;;6276663;22;20607;-62
2021/10/24 11:08:00;;;;;;;4.40;1.38;;;;;;;;;;6276673;22;20450;-61
2021/10/24 11:10:43;;;;;;;3.53;1.20;;;;;;;;;;6249801;22;20143;-62
2021/10/24 11:13:28;;;;;;;4.13;1.30;;;;;;;;;;6276186;22;20737;-62
2021/10/24 11:15:53;;;;;;;1.80;1.20;;;;;;;;;;6276298;22;20158;-62
2021/10/24 11:18:30;;;;;;;2.80;1.40;;;;;;;;;;6276392;22;20144;-62
2021/10/24 11:20:56;;;;;;;3.35;1.10;;;;;;;;;;6276951;22;20151;-61
2021/10/24 11:23:24;;;;;;;1.52;1.05;;;;;;;;;;6276329;22;20501;-61
2021/10/24 11:25:50;;;;;;;3.47;1.27;;;;;;;;;;6276548;22;20195;-61
2021/10/24 11:28:22;;;;;;;5.60;1.50;;;;;;;;;;6277292;22;20160;-62
2021/10/24 11:30:55;;;;;;;2.58;1.23;;;;;;;;;;6276867;22;20135;-60
2021/10/24 11:33:21;;;;;;;3.17;1.83;;;;;;;;;;6276870;22;20124;-61
2021/10/24 11:35:47;;;;;;;3.50;1.40;;;;;;;;;;6276471;22;20147;-61
2021/10/24 11:38:14;;;;;;;3.00;1.65;;;;;;;;;;6276807;22;20429;-61
2021/10/24 11:40:41;;;;;;;3.13;1.30;;;;;;;;;;6278411;22;20326;-61
2021/10/24 11:43:12;;;;;;;3.65;1.35;;;;;;;;;;6278542;22;20375;-61
2021/10/24 11:45:49;;;;;;;1.90;1.20;;;;;;;;;;6278595;22;20174;-61
2021/10/24 11:48:17;;;;;;;4.00;1.30;;;;;;;;;;6278531;22;20503;-61
2021/10/24 11:50:45;;;;;;;4.35;1.50;;;;;;;;;;6278729;22;20410;-61
2021/10/24 11:53:22;;;;;;;3.13;1.45;;;;;;;;;;6278773;22;20139;-61
2021/10/24 11:55:49;;;;;;;3.90;1.75;;;;;;;;;;6278763;22;20219;-61
2021/10/24 11:58:32;;;;;;;2.67;1.52;;;;;;;;;;6278799;22;20147;-61
2021/10/24 12:01:15;;;;;;;4.60;1.40;;;;;;;;;;6279130;22;20135;-61
2021/10/24 12:03:42;;;;;;;2.65;1.50;;;;;;;;;;6278747;22;20446;-61
2021/10/24 12:06:10;;;;;;;4.30;1.38;;;;;;;;;;6279405;22;20171;-61
2021/10/24 12:08:39;;;;;;;1.58;1.05;;;;;;;;;;6278580;22;20197;-61
2021/10/24 12:11:06;;;;;;;3.90;1.38;;;;;;;;;;6279147;22;20212;-61
2021/10/24 12:13:34;;;;;;;3.25;1.30;;;;;;;;;;6279027;22;20144;-61
2021/10/24 12:16:00;;;;;;;3.65;1.50;;;;;;;;;;6278579;22;20148;-61
2021/10/24 12:18:27;;;;;;;3.58;1.40;;;;;;;;;;6278456;22;20487;-60
2021/10/24 12:20:57;;;;;;;4.03;1.20;;;;;;;;;;6278862;22;20143;-60
2021/10/24 12:23:26;;;;;;;3.05;1.45;;;;;;;;;;6278692;22;20139;-61
2021/10/24 12:25:54;;;;;;;3.72;1.30;;;;;;;;;;6278489;22;20482;-62
2021/10/24 12:28:23;;;;;;;2.25;1.20;;;;;;;;;;6278923;22;20154;-62
2021/10/24 12:30:54;;;;;;;3.08;1.27;;;;;;;;;;6278879;22;20152;-60
2021/10/24 12:33:25;;;;;;;5.57;1.30;;;;;;;;;;6278816;22;20571;-62
2021/10/24 12:35:54;;;;;;;4.93;1.20;;;;;;;;;;6278469;22;20477;-62
2021/10/24 12:38:19;;;;;;;2.30;1.08;;;;;;;;;;6278341;22;20457;-62
2021/10/24 12:40:55;;;;;;;4.03;1.38;;;;;;;;;;6278538;22;20146;-62
2021/10/24 12:43:22;;;;;;;3.38;1.48;;;;;;;;;;6278411;22;20139;-62
2021/10/24 12:45:51;;;;;;;3.03;1.40;;;;;;;;;;6278384;22;20178;-60
2021/10/24 12:48:17;;;;;;;2.17;1.05;;;;;;;;;;6278370;22;20140;-60
2021/10/24 12:50:44;;;;;;;3.35;1.30;;;;;;;;;;6278238;22;20136;-59
2021/10/24 12:53:11;;;;;;;2.28;1.30;;;;;;;;;;6278620;22;20543;-60
2021/10/24 12:55:38;;;;;;;2.22;1.23;;;;;;;;;;6278837;22;20151;-60
2021/10/24 12:58:04;;;;;;;4.85;1.50;;;;;;;;;;6278386;22;20148;-60
2021/10/24 13:00:30;;;;;;;2.40;1.25;;;;;;;;;;6278491;22;20152;-60
2021/10/24 13:02:57;;;;;;;3.20;1.30;;;;;;;;;;6278361;22;20150;-60
2021/10/24 13:05:24;;;;;;;4.78;1.60;;;;;;;;;;6278162;22;20556;-60
2021/10/24 13:07:50;;;;;;;3.85;1.63;;;;;;;;;;6279599;22;20151;-61
2021/10/24 13:10:16;;;;;;;2.70;1.60;;;;;;;;;;6279267;22;20140;-60
2021/10/24 13:12:42;;;;;;;5.05;1.60;;;;;;;;;;6279602;22;20150;-62
2021/10/24 13:15:08;;;;;;;2.28;1.30;;;;;;;;;;6279076;22;20139;-60
2021/10/24 13:17:34;;;;;;;2.97;1.48;;;;;;;;;;6280052;22;20151;-62
2021/10/24 13:20:00;;;;;;;3.90;1.55;;;;;;;;;;6280502;22;20150;-62
2021/10/24 13:25:11;;;;;;;3.42;1.40;;;;;;;;;;6282164;22;20189;-62
2021/10/24 13:27:37;;;;;;;3.85;1.40;;;;;;;;;;6285661;22;20163;-61
2021/10/24 13:30:03;;;;;;;3.38;1.33;;;;;;;;;;6284828;22;20136;-61
2021/10/24 13:32:29;;;;;;;5.03;1.60;;;;;;;;;;6258120;22;20213;-62
2021/10/24 13:34:55;;;;;;;3.50;1.52;;;;;;;;;;6281598;22;20163;-61
2021/10/24 13:37:21;;;;;;;4.85;1.52;;;;;;;;;;6278953;22;20551;-61
2021/10/24 13:39:47;;;;;;;3.28;1.50;;;;;;;;;;6277852;22;20231;-61
2021/10/24 13:42:16;;;;;;;3.80;1.42;;;;;;;;;;6278038;22;20147;-61
2021/10/24 13:44:41;;;;;;;2.97;1.65;;;;;;;;;;6278518;22;20144;-62
2021/10/24 13:47:07;;;;;;;4.55;1.60;;;;;;;;;;6277753;22;20246;-61
2021/10/24 13:49:33;;;;;;;1.92;1.42;;;;;;;;;;6251364;22;20206;-61
2021/10/24 13:52:00;;;;;;;2.42;1.42;;;;;;;;;;6277865;22;20190;-61
2021/10/24 13:54:26;;;;;;;4.00;1.70;;;;;;;;;;6277801;22;20140;-61
2021/10/24 13:56:52;;;;;;;3.22;1.58;;;;;;;;;;6277835;22;20238;-61
2021/10/24 13:59:18;;;;;;;3.63;1.75;;;;;;;;;;6277808;22;20143;-61
2021/10/24 14:01:44;;;;;;;4.10;1.20;;;;;;;;;;6277574;22;20151;-61
2021/10/24 14:04:11;;;;;;;4.32;1.45;;;;;;;;;;6276809;22;20240;-61
2021/10/24 14:06:37;;;;;;;4.18;1.88;;;;;;;;;;6277482;22;20168;-61
2021/10/24 14:09:03;;;;;;;3.35;1.50;;;;;;;;;;6277881;22;20206;-61
2021/10/24 14:11:30;;;;;;;3.47;1.65;;;;;;;;;;6277624;22;20207;-61
2021/10/24 14:13:56;;;;;;;3.40;1.50;;;;;;;;;;6277488;22;20178;-61
2021/10/24 14:16:23;;;;;;;2.75;1.70;;;;;;;;;;6277487;22;20140;-61
2021/10/24 14:18:49;;;;;;;4.20;1.55;;;;;;;;;;6277704;22;20204;-61
2021/10/24 14:21:16;;;;;;;3.00;1.63;;;;;;;;;;6277470;22;20143;-59
2021/10/24 14:23:43;;;;;;;4.82;1.55;;;;;;;;;;6277453;22;20143;-61
2021/10/24 14:26:09;;;;;;;2.67;1.60;;;;;;;;;;6277000;22;20183;-61
2021/10/24 14:28:36;;;;;;;3.40;1.65;;;;;;;;;;6277553;22;20151;-61
2021/10/24 14:31:01;;;;;;;3.08;1.67;;;;;;;;;;6277312;22;20140;-61
2021/10/24 14:33:27;;;;;;;4.63;1.90;;;;;;;;;;6277361;22;20201;-60
2021/10/24 14:35:53;;;;;;;4.30;1.75;;;;;;;;;;6277129;22;20143;-61
2021/10/24 14:38:20;;;;;;;6.10;1.85;;;;;;;;;;6277153;22;20171;-61
2021/10/24 14:40:47;;;;;;;3.28;1.60;;;;;;;;;;6277266;22;20143;-61
2021/10/24 14:43:13;;;;;;;4.68;1.73;;;;;;;;;;6276968;22;20140;-60
2021/10/24 14:45:39;;;;;;;5.40;2.00;;;;;;;;;;6276636;22;20421;-60
2021/10/24 14:48:05;;;;;;;2.97;1.63;;;;;;;;;;6276840;22;20142;-60